Larissa , Thessalia , Greece
39° 38' 00"N, 22° 25' 00"E, Elevation 263 ft.
Χειμερινή Time

Hourly observations for the last 48 hours

Date

Time

Temperature (°C) Humi-
dity
(%)
Wind
(kmph)
Pressure Rain (mm) Sun
(W/m2)
UV ET
(mm)
Air Dew 6 Hour 1 Hr 3 Hr 6 Hr Day
Alt
(in)
Sea
Level
(mb)
Max Min
17 00:00 28.2 12.2 37 N 3 G 9 29.81 1009.7 0.00 0 0.0 0.000
16 23:00 30.4 10.9 30 Calm 29.81 1009.3 0.00 0 0.0 5.055
16 22:00 30.9 11.8 31 N 1 G 6 29.80 1009.0 0.00 0 0.0 4.978
16 21:00 31.1 12.0 34.9 31.1 31 N 3 G 6 29.78 1008.6 0.00 0 0.0 4.877
16 20:00 33.0 9.8 24 N 3 G 4 29.77 1008.3 0.00 34 0.0 4.801
16 19:00 34.1 10.1 23 NE 5 G 11 29.77 1008.2 0.00 167 0.0 4.674
16 18:00 34.4 9.0 21 E 2 G 12 29.78 1008.6 0.00 356 0.0 4.420
16 17:00 34.0 9.3 22 N 5 G 17 29.80 1009.0 0.00 529 0.0 4.089
16 16:00 34.4 11.6 25 E 9 G 20 29.81 1009.5 0.00 679 0.0 3.658
16 15:00 34.2 10.2 34.2 25.9 23 NE 9 G 22 29.83 1010.2 0.00 766 0.0 3.124
16 14:00 33.5 12.0 27 NNE 4 G 12 29.85 1010.7 0.00 827 0.0 2.540
16 13:00 32.1 13.3 32 N 6 G 12 29.86 1011.3 0.00 816 0.0 2.007
16 12:00 31.1 13.9 35 N 3 G 8 29.88 1011.8 0.00 757 0.0 1.499
16 11:00 30.1 14.6 39 WSW 2 G 8 29.89 1012.2 0.00 641 0.0 1.067
16 10:00 28.6 15.1 44 N 4 G 6 29.89 1012.3 0.00 506 0.0 0.737
16 09:00 25.9 15.6 25.9 23.1 53 NNE 2 G 4 29.89 1012.2 0.00 326 0.0 0.483
16 08:00 25.0 15.1 54 W 2 G 6 29.88 1011.9 0.00 70 0.0 0.381
16 07:00 23.7 14.7 57 W 3 G 6 29.87 1011.7 0.00 11 0.0 0.330
16 06:00 23.9 14.1 54 SW 3 G 6 29.85 1011.0 0.00 0 0.0 0.305
16 05:00 23.6 14.3 56 SE 0 G 4 29.86 1011.2 0.00 0 0.0 0.254
16 04:00 24.3 14.4 54 ENE 5 G 11 29.86 1011.3 0.00 0 0.0 0.203
16 03:00 24.9 15.5 29.4 24.9 56 E 2 G 8 29.86 1011.2 0.00 0 0.0 0.152
16 02:00 25.3 15.9 56 Calm 29.86 1011.3 0.00 0 0.0 0.102
16 01:00 26.6 15.7 51 N 0 G 1 29.86 1011.3 0.00 0 0.0 0.051
16 00:00 26.9 15.0 48 Calm 29.86 1011.4 0.00 0 0.0 0.000
15 23:00 27.7 14.7 45 Calm 29.88 1011.7 0.00 0 0.0 5.105
15 22:00 28.8 14.2 41 Calm 29.87 1011.5 0.00 0 0.0 5.029
15 21:00 29.3 14.3 33.6 29.3 40 N 0 G 4 29.85 1010.8 0.00 0 0.0 4.953
15 20:00 30.2 15.1 40 N 5 G 9 29.85 1010.7 0.00 23 0.0 4.902
15 19:00 31.8 14.1 34 N 6 G 14 29.85 1010.7 0.00 186 0.0 4.775
15 18:00 32.9 13.0 30 NE 3 G 16 29.85 1010.7 0.00 370 0.0 4.521
15 17:00 33.2 13.8 31 ENE 10 G 17 29.85 1010.7 0.00 534 0.0 4.166
15 16:00 33.0 12.1 28 ESE 7 G 12 29.86 1011.2 0.00 685 0.0 3.734
15 15:00 32.2 12.4 32.4 24.1 30 NNW 4 G 8 29.88 1011.9 0.00 796 0.0 3.251
15 14:00 31.2 11.6 30 N 3 G 8 29.90 1012.5 0.00 854 0.0 2.718
15 13:00 30.7 12.1 32 N 4 G 8 29.92 1013.4 0.00 848 0.0 2.184
15 12:00 29.6 12.5 35 N 5 G 11 29.94 1013.9 0.00 791 0.0 1.676
15 11:00 28.2 12.6 38 N 3 G 6 29.95 1014.4 0.00 684 0.0 1.219
15 10:00 26.3 13.8 46 NE 5 G 8 29.96 1014.5 0.00 532 0.0 0.889
15 09:00 24.1 13.9 24.3 22.1 53 N 2 G 6 29.96 1014.5 0.00 353 0.0 0.635
15 08:00 22.2 13.3 57 N 3 G 6 29.95 1014.2 0.00 164 0.0 0.483
15 07:00 22.2 13.0 56 Calm 29.94 1013.9 0.00 14 0.0 0.432
15 06:00 23.3 12.6 51 WNW 5 G 9 29.92 1013.4 0.00 0 0.0 0.406
15 05:00 23.6 12.8 51 NW 3 G 11 29.92 1013.2 0.00 0 0.0 0.330
15 04:00 23.9 14.1 54 NNW 2 G 4 29.91 1013.0 0.00 0 0.0 0.254
15 03:00 24.3 13.9 28.1 24.3 52 WNW 1 G 4 29.92 1013.2 0.00 0 0.0 0.203
15 02:00 24.7 13.3 49 NNW 3 G 4 29.92 1013.2 0.00 0 0.0 0.152
15 01:00 26.2 13.0 44 NW 1 G 4 29.92 1013.2 0.00 0 0.0 0.076

Data generated by WxSolution Version 1.8.4.2, Build 2009.03.29.